createdAt,value
2019-03-22T00:00:59.232Z,103198.56
2019-03-22T00:03:32.580Z,103187.71
2019-03-22T00:06:05.900Z,103185.12
2019-03-22T00:08:39.337Z,103178.16
2019-03-22T00:11:12.636Z,103189.36
2019-03-22T00:13:46.029Z,103185.84
2019-03-22T00:16:19.335Z,103191.05
2019-03-22T00:18:53.564Z,103183.63
2019-03-22T00:21:27.020Z,103184.47
2019-03-22T00:24:00.531Z,103184.02
2019-03-22T00:26:33.838Z,103186.61
2019-03-22T00:29:07.239Z,103186.50
2019-03-22T00:31:40.609Z,103180.84
2019-03-22T00:34:16.685Z,103187.34
2019-03-22T00:36:50.021Z,103182.52
2019-03-22T00:39:23.367Z,103189.86
2019-03-22T00:41:56.683Z,103187.27
2019-03-22T00:44:30.167Z,103185.08
2019-03-22T00:47:03.536Z,103188.45
2019-03-22T00:49:37.074Z,103188.83
2019-03-22T00:52:10.447Z,103189.70
2019-03-22T00:54:44.566Z,103195.33
2019-03-22T00:57:28.127Z,103183.56
2019-03-22T00:59:53.888Z,103174.89
2019-03-22T01:02:27.240Z,103180.47
2019-03-22T01:05:01.624Z,103188.26
2019-03-22T01:07:34.957Z,103186.01
2019-03-22T01:10:10.367Z,103179.05
2019-03-22T01:12:43.740Z,103173.44
2019-03-22T01:15:17.057Z,103168.63
2019-03-22T01:17:50.247Z,103169.05
2019-03-22T01:20:23.551Z,103165.11
2019-03-22T01:22:57.032Z,103167.70
2019-03-22T01:25:30.349Z,103171.53
2019-03-22T01:28:03.913Z,103167.63
2019-03-22T01:30:37.231Z,103162.81
2019-03-22T01:33:10.730Z,103177.98
2019-03-22T01:35:43.932Z,103172.75
2019-03-22T01:38:17.329Z,103178.78
2019-03-22T01:40:50.635Z,103177.02
2019-03-22T01:43:23.999Z,103176.11
2019-03-22T01:45:57.311Z,103172.59
2019-03-22T01:48:32.338Z,103178.63
2019-03-22T01:51:05.747Z,103173.44
2019-03-22T01:53:39.236Z,103176.45
2019-03-22T01:56:12.831Z,103176.88
2019-03-22T01:58:45.961Z,103173.31
2019-03-22T02:01:19.741Z,103176.79
2019-03-22T02:03:53.120Z,103176.33
2019-03-22T02:06:28.095Z,103179.34
2019-03-22T02:09:01.487Z,103182.75
2019-03-22T02:11:36.285Z,103188.31
2019-03-22T02:14:11.225Z,103188.28
2019-03-22T02:16:44.588Z,103177.43
2019-03-22T02:19:17.915Z,103174.41
2019-03-22T02:21:51.104Z,103169.64
2019-03-22T02:24:24.339Z,103166.58
2019-03-22T02:26:57.733Z,103165.25
2019-03-22T02:29:31.068Z,103167.84
2019-03-22T02:32:04.424Z,103165.17
2019-03-22T02:34:37.727Z,103163.45
2019-03-22T02:37:11.076Z,103158.64
2019-03-22T02:39:44.770Z,103150.39
2019-03-22T02:42:19.804Z,103148.63
2019-03-22T02:44:53.192Z,103140.80
2019-03-22T02:47:26.540Z,103142.52
2019-03-22T02:50:00.479Z,103139.85
2019-03-22T02:52:34.101Z,103129.01
2019-03-22T02:55:08.698Z,103123.81
2019-03-22T02:57:43.002Z,103118.58
2019-03-22T03:00:17.203Z,103114.69
2019-03-22T03:02:50.603Z,103109.45
2019-03-22T03:05:23.948Z,103113.31
2019-03-22T03:07:57.466Z,103105.52
2019-03-22T03:10:30.895Z,103110.25
2019-03-22T03:13:04.344Z,103104.11
2019-03-22T03:15:38.197Z,103104.07
2019-03-22T03:18:11.590Z,103101.05
2019-03-22T03:20:44.944Z,103098.00
2019-03-22T03:23:18.491Z,103088.00
2019-03-22T03:25:52.003Z,103086.70
2019-03-22T03:28:36.008Z,103092.73
2019-03-22T03:31:00.702Z,103090.55
2019-03-22T03:33:34.063Z,103093.53
2019-03-22T03:36:07.398Z,103083.53
2019-03-22T03:38:40.796Z,103083.07
2019-03-22T03:41:14.503Z,103077.42
2019-03-22T03:43:47.861Z,103074.83
2019-03-22T03:46:21.393Z,103076.12
2019-03-22T03:48:54.603Z,103075.20
2019-03-22T03:51:28.098Z,103082.53
2019-03-22T03:54:01.398Z,103083.41
2019-03-22T03:56:34.855Z,103085.92
2019-03-22T03:59:08.193Z,103074.21
2019-03-22T04:01:41.644Z,103074.63
2019-03-22T04:04:15.034Z,103083.71
2019-03-22T04:06:48.401Z,103083.67
2019-03-22T04:09:21.859Z,103084.51
2019-03-22T04:11:55.172Z,103084.92
2019-03-22T04:14:28.624Z,103083.17
2019-03-22T04:17:02.026Z,103084.47
2019-03-22T04:19:35.570Z,103086.56
2019-03-22T04:22:08.962Z,103085.69
2019-03-22T04:24:43.999Z,103087.36
2019-03-22T04:27:17.298Z,103089.95
2019-03-22T04:29:50.740Z,103094.27
2019-03-22T04:32:24.153Z,103090.33
2019-03-22T04:34:57.569Z,103086.41
2019-03-22T04:37:30.886Z,103094.23
2019-03-22T04:40:21.786Z,103089.88
2019-03-22T04:42:55.082Z,103090.84
2019-03-22T04:45:29.515Z,103098.36
2019-03-22T04:48:15.140Z,103097.68
2019-03-22T04:50:50.141Z,103096.97
2019-03-22T04:53:23.514Z,103096.52
2019-03-22T04:55:59.567Z,103093.00
2019-03-22T04:58:33.295Z,103092.47
2019-03-22T05:01:06.834Z,103094.18
2019-03-22T05:03:40.144Z,103095.49
2019-03-22T05:06:13.486Z,103098.09
2019-03-22T05:08:46.937Z,103092.89
2019-03-22T05:11:20.271Z,103095.06
2019-03-22T05:13:53.666Z,103094.22
2019-03-22T05:16:27.166Z,103094.64
2019-03-22T05:19:00.570Z,103094.66
2019-03-22T05:21:33.922Z,103100.19
2019-03-22T05:24:08.852Z,103094.92
2019-03-22T05:26:42.193Z,103094.78
2019-03-22T05:29:15.728Z,103091.16
2019-03-22T05:31:57.006Z,103087.50
2019-03-22T05:34:31.393Z,103082.53
2019-03-22T05:37:04.687Z,103081.79
2019-03-22T05:39:38.042Z,103079.23
2019-03-22T05:42:12.974Z,103077.10
2019-03-22T05:44:46.610Z,103072.77
2019-03-22T05:47:22.640Z,103071.89
2019-03-22T05:49:56.440Z,103078.03
2019-03-22T05:52:29.765Z,103075.77
2019-03-22T05:55:04.879Z,103076.17
2019-03-22T05:57:38.198Z,103083.55
2019-03-22T06:00:11.551Z,103082.58
2019-03-22T06:02:44.874Z,103083.84
2019-03-22T06:05:18.365Z,103084.23
2019-03-22T06:07:51.712Z,103085.00
2019-03-22T06:10:25.052Z,103078.78
2019-03-22T06:12:58.569Z,103086.63
2019-03-22T06:15:31.937Z,103085.64
2019-03-22T06:18:05.246Z,103089.00
2019-03-22T06:20:38.424Z,103095.01
2019-03-22T06:23:11.747Z,103094.47
2019-03-22T06:25:45.100Z,103096.63
2019-03-22T06:28:18.729Z,103087.05
2019-03-22T06:30:53.121Z,103088.70
2019-03-22T06:33:26.489Z,103089.46
2019-03-22T06:35:59.831Z,103089.34
2019-03-22T06:38:33.536Z,103094.05
2019-03-22T06:41:06.939Z,103092.65
2019-03-22T06:43:40.758Z,103094.23
2019-03-22T06:46:14.454Z,103092.45
2019-03-22T06:48:48.288Z,103089.66
2019-03-22T06:51:21.636Z,103092.20
2019-03-22T06:53:55.065Z,103094.14
2019-03-22T06:56:28.508Z,103084.61
2019-03-22T06:59:02.030Z,103091.93
2019-03-22T07:01:35.363Z,103087.41
2019-03-22T07:04:09.063Z,103087.81
2019-03-22T07:06:42.594Z,103093.05
2019-03-22T07:09:16.794Z,103093.50
2019-03-22T07:11:50.483Z,103090.44
2019-03-22T07:14:23.790Z,102998.70
2019-03-22T07:16:58.936Z,103085.31
2019-03-22T07:19:33.570Z,103083.98
2019-03-22T07:22:08.002Z,103078.55
2019-03-22T07:24:41.524Z,103073.34
2019-03-22T07:27:16.330Z,103070.52
2019-03-22T07:29:50.830Z,103075.66
2019-03-22T07:32:24.273Z,102975.37
2019-03-22T07:34:58.003Z,103073.41
2019-03-22T07:37:31.499Z,103074.03
2019-03-22T07:40:05.901Z,103076.80
2019-03-22T07:42:39.241Z,103071.11
2019-03-22T07:45:12.729Z,103069.38
2019-03-22T07:47:46.306Z,103071.14
2019-03-22T07:50:20.774Z,103072.41
2019-03-22T07:52:55.336Z,103071.05
2019-03-22T07:55:28.853Z,103068.54
2019-03-22T07:58:02.333Z,103071.20
2019-03-22T08:00:35.847Z,103070.69
2019-03-22T08:03:09.467Z,103071.53
2019-03-22T08:05:50.725Z,103071.53
2019-03-22T08:08:18.533Z,103073.31
2019-03-22T08:10:51.844Z,103072.73
2019-03-22T08:13:25.507Z,103079.72
2019-03-22T08:15:59.071Z,103074.42
2019-03-22T08:18:32.660Z,103069.67
2019-03-22T08:21:06.192Z,103063.17
2019-03-22T08:23:39.816Z,103065.84
2019-03-22T08:26:13.282Z,103061.91
2019-03-22T08:28:46.794Z,103064.05
2019-03-22T08:31:20.146Z,103064.02
2019-03-22T08:33:53.641Z,103059.66
2019-03-22T08:36:26.919Z,103057.81
2019-03-22T08:39:00.272Z,103060.84
2019-03-22T08:41:33.663Z,103052.61
2019-03-22T08:44:07.138Z,103056.94
2019-03-22T08:46:40.599Z,103058.66
2019-03-22T08:49:14.047Z,103051.31
2019-03-22T08:51:49.819Z,103050.47
2019-03-22T08:54:23.261Z,103055.25
2019-03-22T08:56:56.758Z,103056.22
2019-03-22T08:59:31.399Z,103052.38
2019-03-22T09:02:04.692Z,103047.70
2019-03-22T09:04:38.049Z,103043.44
2019-03-22T09:07:11.418Z,103049.25
2019-03-22T09:09:44.858Z,103042.91
2019-03-22T09:12:18.361Z,103048.06
2019-03-22T09:14:51.860Z,103047.05
2019-03-22T09:17:25.273Z,103052.92
2019-03-22T09:19:58.817Z,103042.26
2019-03-22T09:22:32.136Z,103042.43
2019-03-22T09:25:06.013Z,103040.76
2019-03-22T09:27:39.310Z,103036.54
2019-03-22T09:30:13.837Z,103042.67
2019-03-22T09:32:47.245Z,103043.21
2019-03-22T09:35:22.313Z,103041.06
2019-03-22T09:37:56.021Z,103040.21
2019-03-22T09:40:30.583Z,102963.44
2019-03-22T09:43:03.903Z,103036.84
2019-03-22T09:45:37.322Z,103035.98
2019-03-22T09:48:10.692Z,103038.67
2019-03-22T09:50:44.038Z,103033.45
2019-03-22T09:53:17.448Z,103041.65
2019-03-22T09:55:50.791Z,103040.31
2019-03-22T09:58:24.250Z,103032.94
2019-03-22T10:00:59.135Z,103033.41
2019-03-22T10:03:32.456Z,103033.45
2019-03-22T10:06:05.885Z,103033.75
2019-03-22T10:08:39.335Z,103030.75
2019-03-22T10:11:12.863Z,103026.00
2019-03-22T10:13:48.309Z,103023.26
2019-03-22T10:16:21.361Z,103024.61
2019-03-22T10:18:54.720Z,103019.80
2019-03-22T10:21:28.215Z,103013.66
2019-03-22T10:24:01.566Z,103005.77
2019-03-22T10:26:36.590Z,103011.09
2019-03-22T10:29:10.380Z,103005.91
2019-03-22T10:31:44.217Z,103002.34
2019-03-22T10:34:17.508Z,103002.77
2019-03-22T10:36:51.091Z,102996.23
2019-03-22T10:39:24.388Z,102996.20
2019-03-22T10:41:57.794Z,102995.31
2019-03-22T10:44:31.270Z,102987.84
2019-03-22T10:47:04.638Z,102982.71
2019-03-22T10:49:38.260Z,102977.38
2019-03-22T10:52:11.694Z,102978.30
2019-03-22T10:54:45.401Z,102975.44
2019-03-22T10:57:19.180Z,102964.70
2019-03-22T10:59:52.608Z,102964.67
2019-03-22T11:02:25.956Z,102960.31
2019-03-22T11:04:59.583Z,102954.71
2019-03-22T11:07:32.930Z,102956.84
2019-03-22T11:10:08.606Z,102951.23
2019-03-22T11:12:43.038Z,102951.92
2019-03-22T11:15:17.967Z,102943.34
2019-03-22T11:17:51.454Z,102949.34
2019-03-22T11:20:24.768Z,102945.15
2019-03-22T11:22:58.112Z,102937.34
2019-03-22T11:25:31.431Z,102932.64
2019-03-22T11:28:04.776Z,102928.33
2019-03-22T11:30:39.864Z,102920.55
2019-03-22T11:33:13.372Z,102921.84
2019-03-22T11:35:46.687Z,102920.50
2019-03-22T11:38:19.861Z,102917.94
2019-03-22T11:40:55.528Z,102905.78
2019-03-22T11:43:29.094Z,102897.56
2019-03-22T11:46:02.262Z,102899.30
2019-03-22T11:48:37.241Z,102898.02
2019-03-22T11:51:10.589Z,102896.27
2019-03-22T11:53:44.069Z,102888.05
2019-03-22T11:56:17.589Z,102888.45
2019-03-22T11:58:50.900Z,102883.66
2019-03-22T12:01:24.244Z,102881.09
2019-03-22T12:03:57.588Z,102868.03
2019-03-22T12:06:30.931Z,102878.85
2019-03-22T12:09:06.096Z,102871.77
2019-03-22T12:11:39.471Z,102866.03
2019-03-22T12:14:13.065Z,102865.98
2019-03-22T12:16:46.570Z,102858.97
2019-03-22T12:19:19.948Z,102852.82
2019-03-22T12:21:53.431Z,102844.05
2019-03-22T12:24:26.928Z,102852.27
2019-03-22T12:27:00.901Z,102841.33
2019-03-22T12:29:35.038Z,102840.88
2019-03-22T12:32:08.427Z,102837.82
2019-03-22T12:34:41.738Z,102833.92
2019-03-22T12:37:15.183Z,102834.30
2019-03-22T12:39:48.658Z,102830.45
2019-03-22T12:42:22.056Z,102821.34
2019-03-22T12:44:55.508Z,102822.61
2019-03-22T12:47:28.857Z,102820.99
2019-03-22T12:50:02.213Z,102815.70
2019-03-22T12:52:35.654Z,102809.61
2019-03-22T12:55:10.335Z,102808.28
2019-03-22T12:57:43.685Z,102808.30
2019-03-22T13:00:22.203Z,102806.16
2019-03-22T13:02:55.662Z,102794.89
2019-03-22T13:05:29.034Z,102791.52
2019-03-22T13:08:02.579Z,102777.70
2019-03-22T13:10:36.238Z,102777.38
2019-03-22T13:13:09.724Z,102769.13
2019-03-22T13:15:43.090Z,102764.36
2019-03-22T13:18:17.995Z,102758.71
2019-03-22T13:20:51.345Z,102758.30
2019-03-22T13:23:25.187Z,102753.14
2019-03-22T13:25:58.461Z,102745.84
2019-03-22T13:28:31.940Z,102747.61
2019-03-22T13:31:05.440Z,102744.16
2019-03-22T13:33:38.984Z,102746.87
2019-03-22T13:36:12.361Z,102737.80
2019-03-22T13:38:45.744Z,102735.28
2019-03-22T13:41:19.266Z,102734.54
2019-03-22T13:43:52.603Z,102726.84
2019-03-22T13:46:25.795Z,102724.36
2019-03-22T13:48:59.269Z,102723.66
2019-03-22T13:51:32.606Z,102720.31
2019-03-22T13:54:06.118Z,102722.16
2019-03-22T13:56:39.670Z,102717.52
2019-03-22T13:59:13.314Z,102713.37
2019-03-22T14:01:47.016Z,102705.63
2019-03-22T14:04:20.334Z,102711.34
2019-03-22T14:06:53.670Z,102710.63
2019-03-22T14:09:27.011Z,102713.02
2019-03-22T14:12:00.329Z,102696.19
2019-03-22T14:14:33.480Z,102692.49
2019-03-22T14:17:08.419Z,102690.86
2019-03-22T14:19:41.811Z,102687.50
2019-03-22T14:22:16.131Z,102686.28
2019-03-22T14:24:49.565Z,102679.83
2019-03-22T14:27:23.016Z,102676.02
2019-03-22T14:29:56.201Z,102676.89
2019-03-22T14:32:29.601Z,102678.68
2019-03-22T14:35:04.506Z,102669.05
2019-03-22T14:37:38.491Z,102671.21
2019-03-22T14:40:15.581Z,102663.77
2019-03-22T14:42:46.861Z,102664.26
2019-03-22T14:45:20.267Z,102658.17
2019-03-22T14:47:53.762Z,102654.25
2019-03-22T14:50:27.112Z,102657.30
2019-03-22T14:53:00.520Z,102650.77
2019-03-22T14:55:33.923Z,102654.24
2019-03-22T14:58:07.277Z,102644.69
2019-03-22T15:00:40.801Z,102645.55
2019-03-22T15:03:22.347Z,102641.62
2019-03-22T15:05:50.582Z,102640.28
2019-03-22T15:08:23.941Z,102636.77
2019-03-22T15:10:57.166Z,102637.63
2019-03-22T15:13:30.713Z,102633.27
2019-03-22T15:16:04.365Z,102633.70
2019-03-22T15:18:37.836Z,102628.05
2019-03-22T15:21:11.263Z,102620.70
2019-03-22T15:23:48.184Z,102615.52
2019-03-22T15:26:22.009Z,102612.03
2019-03-22T15:28:57.094Z,102609.39
2019-03-22T15:31:30.830Z,102604.56
2019-03-22T15:34:04.847Z,102611.52
2019-03-22T15:36:39.944Z,102602.81
2019-03-22T15:39:17.848Z,102598.90
2019-03-22T15:41:53.131Z,102596.29
2019-03-22T15:44:26.985Z,102592.37
2019-03-22T15:47:01.952Z,102596.29
2019-03-22T15:49:37.407Z,102594.50
2019-03-22T15:52:11.138Z,102598.86
2019-03-22T15:54:44.993Z,102595.38
2019-03-22T15:57:18.530Z,102593.20
2019-03-22T15:59:51.864Z,102599.29
2019-03-22T16:02:25.262Z,102599.77
2019-03-22T16:04:58.943Z,102600.63
2019-03-22T16:07:32.323Z,102601.94
2019-03-22T16:10:09.812Z,102601.50
2019-03-22T16:12:43.780Z,102603.20
2019-03-22T16:15:17.495Z,102605.32
2019-03-22T16:17:51.022Z,102600.52
2019-03-22T16:20:24.442Z,102597.91
2019-03-22T16:22:57.859Z,102603.13
2019-03-22T16:25:31.172Z,102604.38
2019-03-22T16:28:04.612Z,102604.38
2019-03-22T16:30:38.061Z,102600.89
2019-03-22T16:33:11.410Z,102606.97
2019-03-22T16:35:45.047Z,102603.48
2019-03-22T16:38:20.016Z,102605.19
2019-03-22T16:40:53.334Z,102606.05
2019-03-22T16:43:26.728Z,102603.86
2019-03-22T16:46:00.127Z,102599.91
2019-03-22T16:48:33.609Z,102600.33
2019-03-22T16:51:06.950Z,102600.32
2019-03-22T16:53:40.507Z,102600.27
2019-03-22T16:56:13.923Z,102598.06
2019-03-22T16:58:47.383Z,102594.53
2019-03-22T17:01:20.701Z,102603.64
2019-03-22T17:04:04.147Z,102601.41
2019-03-22T17:06:30.766Z,102598.73
2019-03-22T17:09:05.511Z,102593.92
2019-03-22T17:11:38.914Z,102595.58
2019-03-22T17:14:13.926Z,102595.55
2019-03-22T17:16:47.291Z,102598.55
2019-03-22T17:19:20.646Z,102597.65
2019-03-22T17:21:54.036Z,102600.63
2019-03-22T17:24:28.041Z,102603.23
2019-03-22T17:27:01.434Z,102598.86
2019-03-22T17:29:34.776Z,102603.16
2019-03-22T17:32:08.278Z,102609.66
2019-03-22T17:34:42.127Z,102613.55
2019-03-22T17:37:15.726Z,102616.95
2019-03-22T17:39:49.212Z,102620.84
2019-03-22T17:42:22.629Z,102630.39
2019-03-22T17:44:55.930Z,102624.73
2019-03-22T17:47:29.302Z,102632.05
2019-03-22T17:50:04.181Z,102636.37
2019-03-22T17:52:37.537Z,102639.80
2019-03-22T17:55:10.854Z,102640.20
2019-03-22T17:57:44.199Z,102638.44
2019-03-22T18:00:18.783Z,102642.28
2019-03-22T18:02:52.219Z,102644.00
2019-03-22T18:05:25.557Z,102649.19
2019-03-22T18:07:58.910Z,102646.10
2019-03-22T18:10:32.278Z,102648.70
2019-03-22T18:13:05.597Z,102651.28
2019-03-22T18:15:38.912Z,102661.24
2019-03-22T18:18:12.257Z,102660.32
2019-03-22T18:20:45.601Z,102663.35
2019-03-22T18:23:19.282Z,102671.59
2019-03-22T18:25:52.662Z,102673.33
2019-03-22T18:28:25.996Z,102669.84
2019-03-22T18:30:59.466Z,102674.61
2019-03-22T18:33:32.842Z,102669.39
2019-03-22T18:36:06.232Z,102671.98
2019-03-22T18:38:39.584Z,102677.62
2019-03-22T18:41:13.959Z,102675.36
2019-03-22T18:43:47.400Z,102683.17
2019-03-22T18:46:20.805Z,102682.28
2019-03-22T18:48:54.371Z,102681.39
2019-03-22T18:51:27.711Z,102684.41
2019-03-22T18:54:01.192Z,102686.52
2019-03-22T18:56:34.560Z,102688.67
2019-03-22T18:59:08.120Z,102683.45
2019-03-22T19:01:41.507Z,102686.03
2019-03-22T19:04:16.208Z,102685.09
2019-03-22T19:06:49.644Z,102686.80
2019-03-22T19:09:23.005Z,102689.81
2019-03-22T19:11:56.631Z,102693.28
2019-03-22T19:14:30.188Z,102690.59
2019-03-22T19:17:03.598Z,102695.33
2019-03-22T19:19:37.069Z,102698.75
2019-03-22T19:22:10.505Z,102700.46
2019-03-22T19:24:43.849Z,102694.36
2019-03-22T19:27:17.172Z,102704.31
2019-03-22T19:29:50.518Z,102710.77
2019-03-22T19:32:24.005Z,102710.72
2019-03-22T19:34:57.424Z,102711.98
2019-03-22T19:37:30.881Z,102713.66
2019-03-22T19:40:06.996Z,102619.87
2019-03-22T19:42:40.215Z,102707.56
2019-03-22T19:45:14.090Z,102710.12
2019-03-22T19:47:49.084Z,102708.32
2019-03-22T19:50:22.628Z,102711.75
2019-03-22T19:52:56.225Z,102712.61
2019-03-22T19:55:29.604Z,102713.89
2019-03-22T19:58:02.919Z,102715.14
2019-03-22T20:00:36.276Z,102718.59
2019-03-22T20:03:10.143Z,102720.74
2019-03-22T20:05:43.496Z,102718.55
2019-03-22T20:08:16.811Z,102722.43
2019-03-22T20:10:50.206Z,102719.38
2019-03-22T20:13:23.526Z,102725.40
2019-03-22T20:15:56.883Z,102733.63
2019-03-22T20:18:30.218Z,102731.86
2019-03-22T20:21:03.574Z,102731.41
2019-03-22T20:23:36.967Z,102728.81
2019-03-22T20:26:10.307Z,102726.23
2019-03-22T20:28:43.800Z,102725.01
2019-03-22T20:31:17.217Z,102729.41
2019-03-22T20:33:52.177Z,102729.52
2019-03-22T20:36:26.076Z,102728.36
2019-03-22T20:38:59.411Z,102728.06
2019-03-22T20:41:32.815Z,102728.64
2019-03-22T20:44:06.180Z,102726.62
2019-03-22T20:46:39.652Z,102725.53
2019-03-22T20:49:13.145Z,102733.92
2019-03-22T20:51:46.837Z,102731.89
2019-03-22T20:54:20.176Z,102734.19
2019-03-22T20:56:53.704Z,102732.55
2019-03-22T20:59:27.019Z,102733.45
2019-03-22T21:02:00.608Z,102739.62
2019-03-22T21:04:35.227Z,102744.78
2019-03-22T21:07:08.671Z,102746.51
2019-03-22T21:09:42.052Z,102743.97
2019-03-22T21:12:15.592Z,102747.48
2019-03-22T21:14:49.015Z,102747.93
2019-03-22T21:17:22.397Z,102754.54
2019-03-22T21:19:56.128Z,102755.39
2019-03-22T21:22:29.438Z,102754.09
2019-03-22T21:25:04.971Z,102750.64
2019-03-22T21:27:38.264Z,102754.63
2019-03-22T21:30:14.889Z,102758.22
2019-03-22T21:32:48.224Z,102758.20
2019-03-22T21:35:23.029Z,102757.38
2019-03-22T21:37:56.637Z,102760.03
2019-03-22T21:40:29.942Z,102761.78
2019-03-22T21:43:03.407Z,102764.86
2019-03-22T21:45:36.925Z,102760.51
2019-03-22T21:48:10.811Z,102766.16
2019-03-22T21:50:44.510Z,102760.06
2019-03-22T21:53:19.574Z,102773.11
2019-03-22T21:55:54.257Z,102762.25
2019-03-22T21:58:27.769Z,102727.61
2019-03-22T22:01:01.089Z,102740.31
2019-03-22T22:03:34.519Z,102765.72
2019-03-22T22:06:07.854Z,102767.88
2019-03-22T22:08:41.334Z,102765.70
2019-03-22T22:11:14.838Z,102768.22
2019-03-22T22:13:48.476Z,102770.39
2019-03-22T22:16:21.813Z,102775.59
2019-03-22T22:18:56.946Z,102777.78
2019-03-22T22:21:30.322Z,102783.43
2019-03-22T22:24:03.891Z,102779.96
2019-03-22T22:26:38.311Z,102771.67
2019-03-22T22:29:12.166Z,102779.50
2019-03-22T22:31:46.963Z,102779.95
2019-03-22T22:34:20.354Z,102781.23
2019-03-22T22:36:55.333Z,102785.13
2019-03-22T22:39:28.900Z,102786.45
2019-03-22T22:42:02.321Z,102793.80
2019-03-22T22:44:36.126Z,102788.17
2019-03-22T22:47:09.515Z,102788.98
2019-03-22T22:49:43.163Z,102785.91
2019-03-22T22:52:16.659Z,102785.91
2019-03-22T22:54:50.290Z,102788.44
2019-03-22T22:57:23.622Z,102787.97
2019-03-22T22:59:56.986Z,102788.81
2019-03-22T23:02:30.517Z,102790.49
2019-03-22T23:05:05.360Z,102786.53
2019-03-22T23:07:39.156Z,102789.13
2019-03-22T23:10:12.814Z,102793.84
2019-03-22T23:12:46.413Z,102803.80
2019-03-22T23:15:19.543Z,102785.52
2019-03-22T23:17:53.023Z,102786.33
2019-03-22T23:20:26.316Z,102798.02
2019-03-22T23:22:59.737Z,102795.30
2019-03-22T23:25:33.292Z,102789.20
2019-03-22T23:28:06.942Z,102784.84
2019-03-22T23:30:40.382Z,102784.73
2019-03-22T23:33:15.431Z,102777.78
2019-03-22T23:35:49.028Z,102778.16
2019-03-22T23:38:23.539Z,102776.42
2019-03-22T23:40:57.138Z,102775.92
2019-03-22T23:43:31.710Z,102775.48
2019-03-22T23:46:05.454Z,102768.50
2019-03-22T23:48:38.776Z,102770.60
2019-03-22T23:51:12.093Z,102757.99
2019-03-22T23:53:45.468Z,102758.84
2019-03-22T23:56:18.847Z,102762.30
2019-03-22T23:58:52.297Z,102750.91
